sensor_id;sensor_type;location;lat;lon;timestamp;P1;durP1;ratioP1;P2;durP2;ratioP2
62572;SDS011;48626;51.678;5.806;2022-08-19T00:00:04;26.50;;;18.08;;
62572;SDS011;48626;51.678;5.806;2022-08-19T00:02:34;23.77;;;18.67;;
62572;SDS011;48626;51.678;5.806;2022-08-19T00:05:00;22.33;;;18.05;;
62572;SDS011;48626;51.678;5.806;2022-08-19T00:07:26;22.30;;;17.67;;
62572;SDS011;48626;51.678;5.806;2022-08-19T00:09:51;22.60;;;17.58;;
62572;SDS011;48626;51.678;5.806;2022-08-19T00:12:17;20.67;;;17.30;;
62572;SDS011;48626;51.678;5.806;2022-08-19T00:14:43;24.15;;;17.27;;
62572;SDS011;48626;51.678;5.806;2022-08-19T00:17:08;20.30;;;17.45;;
62572;SDS011;48626;51.678;5.806;2022-08-19T00:19:35;21.83;;;16.38;;
62572;SDS011;48626;51.678;5.806;2022-08-19T00:22:01;19.30;;;15.60;;
62572;SDS011;48626;51.678;5.806;2022-08-19T00:24:27;19.85;;;15.77;;
62572;SDS011;48626;51.678;5.806;2022-08-19T00:26:54;21.42;;;16.83;;
62572;SDS011;48626;51.678;5.806;2022-08-19T00:29:21;21.23;;;17.60;;
62572;SDS011;48626;51.678;5.806;2022-08-19T00:31:49;28.45;;;18.85;;
62572;SDS011;48626;51.678;5.806;2022-08-19T00:34:18;24.58;;;19.23;;
62572;SDS011;48626;51.678;5.806;2022-08-19T00:36:44;24.35;;;19.20;;
62572;SDS011;48626;51.678;5.806;2022-08-19T00:39:11;25.75;;;18.95;;
62572;SDS011;48626;51.678;5.806;2022-08-19T00:41:37;25.27;;;18.23;;
62572;SDS011;48626;51.678;5.806;2022-08-19T00:46:36;24.58;;;18.63;;
62572;SDS011;48626;51.678;5.806;2022-08-19T00:49:06;22.75;;;18.10;;
62572;SDS011;48626;51.678;5.806;2022-08-19T00:51:43;24.13;;;17.90;;
62572;SDS011;48626;51.678;5.806;2022-08-19T00:56:38;24.80;;;17.42;;
62572;SDS011;48626;51.678;5.806;2022-08-19T00:59:05;23.65;;;18.55;;
62572;SDS011;48626;51.678;5.806;2022-08-19T01:01:37;23.00;;;19.10;;
62572;SDS011;48626;51.678;5.806;2022-08-19T01:04:05;23.52;;;18.70;;
62572;SDS011;48626;51.678;5.806;2022-08-19T01:06:32;22.85;;;19.17;;
62572;SDS011;48626;51.678;5.806;2022-08-19T01:09:00;26.42;;;18.73;;
62572;SDS011;48626;51.678;5.806;2022-08-19T01:11:28;28.13;;;20.08;;
62572;SDS011;48626;51.678;5.806;2022-08-19T01:13:56;26.08;;;19.45;;
62572;SDS011;48626;51.678;5.806;2022-08-19T01:16:23;28.05;;;19.85;;
62572;SDS011;48626;51.678;5.806;2022-08-19T01:18:51;24.08;;;18.70;;
62572;SDS011;48626;51.678;5.806;2022-08-19T01:24:01;25.10;;;18.80;;
62572;SDS011;48626;51.678;5.806;2022-08-19T01:26:27;24.20;;;19.60;;
62572;SDS011;48626;51.678;5.806;2022-08-19T01:28:54;26.83;;;20.17;;
62572;SDS011;48626;51.678;5.806;2022-08-19T01:31:23;24.55;;;19.00;;
62572;SDS011;48626;51.678;5.806;2022-08-19T01:33:51;23.60;;;19.40;;
62572;SDS011;48626;51.678;5.806;2022-08-19T01:36:28;25.60;;;19.48;;
62572;SDS011;48626;51.678;5.806;2022-08-19T01:38:54;27.00;;;18.27;;
62572;SDS011;48626;51.678;5.806;2022-08-19T01:41:21;23.42;;;18.38;;
62572;SDS011;48626;51.678;5.806;2022-08-19T01:43:48;24.83;;;18.70;;
62572;SDS011;48626;51.678;5.806;2022-08-19T01:46:15;26.80;;;19.85;;
62572;SDS011;48626;51.678;5.806;2022-08-19T01:48:41;25.02;;;19.08;;
62572;SDS011;48626;51.678;5.806;2022-08-19T01:51:08;24.20;;;19.30;;
62572;SDS011;48626;51.678;5.806;2022-08-19T01:53:35;23.67;;;19.20;;
62572;SDS011;48626;51.678;5.806;2022-08-19T01:56:02;26.10;;;19.10;;
62572;SDS011;48626;51.678;5.806;2022-08-19T01:58:30;24.98;;;18.90;;
62572;SDS011;48626;51.678;5.806;2022-08-19T02:01:01;25.48;;;19.40;;
62572;SDS011;48626;51.678;5.806;2022-08-19T02:03:28;23.90;;;19.15;;
62572;SDS011;48626;51.678;5.806;2022-08-19T02:05:54;23.58;;;18.77;;
62572;SDS011;48626;51.678;5.806;2022-08-19T02:08:22;24.08;;;18.65;;
62572;SDS011;48626;51.678;5.806;2022-08-19T02:10:48;23.10;;;18.88;;
62572;SDS011;48626;51.678;5.806;2022-08-19T02:13:14;25.90;;;18.80;;
62572;SDS011;48626;51.678;5.806;2022-08-19T02:15:40;25.08;;;18.70;;
62572;SDS011;48626;51.678;5.806;2022-08-19T02:18:06;22.75;;;16.90;;
62572;SDS011;48626;51.678;5.806;2022-08-19T02:20:33;21.85;;;18.55;;
62572;SDS011;48626;51.678;5.806;2022-08-19T02:23:00;23.40;;;19.10;;
62572;SDS011;48626;51.678;5.806;2022-08-19T02:25:26;22.40;;;18.80;;
62572;SDS011;48626;51.678;5.806;2022-08-19T02:27:52;23.05;;;18.00;;
62572;SDS011;48626;51.678;5.806;2022-08-19T02:30:19;23.25;;;18.60;;
62572;SDS011;48626;51.678;5.806;2022-08-19T02:32:45;24.83;;;19.85;;
62572;SDS011;48626;51.678;5.806;2022-08-19T02:35:12;25.05;;;19.15;;
62572;SDS011;48626;51.678;5.806;2022-08-19T02:37:39;26.05;;;19.33;;
62572;SDS011;48626;51.678;5.806;2022-08-19T02:40:24;25.05;;;19.00;;
62572;SDS011;48626;51.678;5.806;2022-08-19T02:42:49;24.65;;;20.15;;
62572;SDS011;48626;51.678;5.806;2022-08-19T02:45:15;30.15;;;18.98;;
62572;SDS011;48626;51.678;5.806;2022-08-19T02:47:41;26.80;;;18.90;;
62572;SDS011;48626;51.678;5.806;2022-08-19T02:50:07;29.50;;;20.63;;
62572;SDS011;48626;51.678;5.806;2022-08-19T02:52:34;26.48;;;20.27;;
62572;SDS011;48626;51.678;5.806;2022-08-19T02:55:00;25.73;;;18.65;;
62572;SDS011;48626;51.678;5.806;2022-08-19T02:57:26;25.65;;;19.05;;
62572;SDS011;48626;51.678;5.806;2022-08-19T02:59:52;27.65;;;20.65;;
62572;SDS011;48626;51.678;5.806;2022-08-19T03:02:18;28.80;;;21.17;;
62572;SDS011;48626;51.678;5.806;2022-08-19T03:04:44;30.30;;;21.58;;
62572;SDS011;48626;51.678;5.806;2022-08-19T03:07:12;27.67;;;21.30;;
62572;SDS011;48626;51.678;5.806;2022-08-19T03:09:39;29.65;;;21.95;;
62572;SDS011;48626;51.678;5.806;2022-08-19T03:12:05;29.77;;;21.77;;
62572;SDS011;48626;51.678;5.806;2022-08-19T03:14:31;26.75;;;20.40;;
62572;SDS011;48626;51.678;5.806;2022-08-19T03:16:58;30.08;;;21.67;;
62572;SDS011;48626;51.678;5.806;2022-08-19T03:19:23;29.35;;;21.45;;
62572;SDS011;48626;51.678;5.806;2022-08-19T03:21:50;29.25;;;20.70;;
62572;SDS011;48626;51.678;5.806;2022-08-19T03:24:16;31.60;;;21.58;;
62572;SDS011;48626;51.678;5.806;2022-08-19T03:26:45;29.67;;;22.75;;
62572;SDS011;48626;51.678;5.806;2022-08-19T03:29:13;32.05;;;22.23;;
62572;SDS011;48626;51.678;5.806;2022-08-19T03:31:41;30.95;;;21.67;;
62572;SDS011;48626;51.678;5.806;2022-08-19T03:34:08;31.38;;;22.10;;
62572;SDS011;48626;51.678;5.806;2022-08-19T03:36:36;37.95;;;24.88;;
62572;SDS011;48626;51.678;5.806;2022-08-19T03:39:02;33.75;;;23.73;;
62572;SDS011;48626;51.678;5.806;2022-08-19T03:41:35;35.05;;;22.85;;
62572;SDS011;48626;51.678;5.806;2022-08-19T03:44:02;36.08;;;22.83;;
62572;SDS011;48626;51.678;5.806;2022-08-19T03:46:30;33.80;;;24.00;;
62572;SDS011;48626;51.678;5.806;2022-08-19T03:48:58;34.13;;;23.77;;
62572;SDS011;48626;51.678;5.806;2022-08-19T03:51:29;39.72;;;25.38;;
62572;SDS011;48626;51.678;5.806;2022-08-19T03:53:57;36.20;;;23.60;;
62572;SDS011;48626;51.678;5.806;2022-08-19T03:56:25;32.47;;;23.45;;
62572;SDS011;48626;51.678;5.806;2022-08-19T03:58:52;36.33;;;24.63;;
62572;SDS011;48626;51.678;5.806;2022-08-19T04:01:20;33.08;;;23.65;;
62572;SDS011;48626;51.678;5.806;2022-08-19T04:03:48;32.08;;;22.38;;
62572;SDS011;48626;51.678;5.806;2022-08-19T04:06:15;33.97;;;24.15;;
62572;SDS011;48626;51.678;5.806;2022-08-19T04:08:44;31.80;;;22.98;;
62572;SDS011;48626;51.678;5.806;2022-08-19T04:11:13;37.38;;;23.55;;
62572;SDS011;48626;51.678;5.806;2022-08-19T04:13:42;37.72;;;24.48;;
62572;SDS011;48626;51.678;5.806;2022-08-19T04:16:09;33.85;;;23.90;;
62572;SDS011;48626;51.678;5.806;2022-08-19T04:18:36;38.05;;;23.50;;
62572;SDS011;48626;51.678;5.806;2022-08-19T04:21:03;37.80;;;24.10;;
62572;SDS011;48626;51.678;5.806;2022-08-19T04:23:30;35.28;;;24.73;;
62572;SDS011;48626;51.678;5.806;2022-08-19T04:25:56;35.05;;;24.05;;
62572;SDS011;48626;51.678;5.806;2022-08-19T04:28:22;40.60;;;23.77;;
62572;SDS011;48626;51.678;5.806;2022-08-19T04:30:49;37.65;;;24.00;;
62572;SDS011;48626;51.678;5.806;2022-08-19T04:33:21;37.92;;;25.67;;
62572;SDS011;48626;51.678;5.806;2022-08-19T04:35:48;43.15;;;26.42;;
62572;SDS011;48626;51.678;5.806;2022-08-19T04:38:16;48.75;;;27.27;;
62572;SDS011;48626;51.678;5.806;2022-08-19T04:40:46;44.97;;;27.25;;
62572;SDS011;48626;51.678;5.806;2022-08-19T04:43:33;42.22;;;26.25;;
62572;SDS011;48626;51.678;5.806;2022-08-19T04:46:07;47.13;;;27.98;;
62572;SDS011;48626;51.678;5.806;2022-08-19T04:48:35;47.58;;;27.05;;
62572;SDS011;48626;51.678;5.806;2022-08-19T04:51:05;52.45;;;28.33;;
62572;SDS011;48626;51.678;5.806;2022-08-19T04:53:33;46.80;;;26.90;;
62572;SDS011;48626;51.678;5.806;2022-08-19T04:56:06;48.80;;;28.45;;
62572;SDS011;48626;51.678;5.806;2022-08-19T04:58:34;49.88;;;26.40;;
62572;SDS011;48626;51.678;5.806;2022-08-19T05:01:01;54.67;;;28.85;;
62572;SDS011;48626;51.678;5.806;2022-08-19T05:03:27;51.35;;;28.20;;
62572;SDS011;48626;51.678;5.806;2022-08-19T05:05:56;52.83;;;27.63;;
62572;SDS011;48626;51.678;5.806;2022-08-19T05:08:21;47.92;;;26.63;;
62572;SDS011;48626;51.678;5.806;2022-08-19T05:10:48;48.00;;;26.65;;
62572;SDS011;48626;51.678;5.806;2022-08-19T05:13:15;52.83;;;27.85;;
62572;SDS011;48626;51.678;5.806;2022-08-19T05:15:43;44.83;;;26.58;;
62572;SDS011;48626;51.678;5.806;2022-08-19T05:18:09;52.20;;;28.65;;
62572;SDS011;48626;51.678;5.806;2022-08-19T05:21:08;55.13;;;27.92;;
62572;SDS011;48626;51.678;5.806;2022-08-19T05:23:54;55.55;;;28.35;;
62572;SDS011;48626;51.678;5.806;2022-08-19T05:26:20;52.17;;;27.83;;
62572;SDS011;48626;51.678;5.806;2022-08-19T05:28:46;51.75;;;28.02;;
62572;SDS011;48626;51.678;5.806;2022-08-19T05:31:12;49.03;;;26.90;;
62572;SDS011;48626;51.678;5.806;2022-08-19T05:33:37;53.75;;;28.23;;
62572;SDS011;48626;51.678;5.806;2022-08-19T05:36:04;47.60;;;27.05;;
62572;SDS011;48626;51.678;5.806;2022-08-19T05:38:32;53.03;;;30.13;;
62572;SDS011;48626;51.678;5.806;2022-08-19T05:40:58;50.17;;;28.27;;
62572;SDS011;48626;51.678;5.806;2022-08-19T05:43:24;55.90;;;30.17;;
62572;SDS011;48626;51.678;5.806;2022-08-19T05:45:50;56.20;;;30.55;;
62572;SDS011;48626;51.678;5.806;2022-08-19T05:48:16;73.72;;;31.30;;
62572;SDS011;48626;51.678;5.806;2022-08-19T05:50:45;65.55;;;32.30;;
62572;SDS011;48626;51.678;5.806;2022-08-19T05:53:11;65.97;;;31.92;;
62572;SDS011;48626;51.678;5.806;2022-08-19T05:55:38;59.58;;;32.38;;
62572;SDS011;48626;51.678;5.806;2022-08-19T05:58:04;66.10;;;33.75;;
62572;SDS011;48626;51.678;5.806;2022-08-19T06:00:32;66.68;;;33.88;;
62572;SDS011;48626;51.678;5.806;2022-08-19T06:02:58;69.32;;;34.83;;
62572;SDS011;48626;51.678;5.806;2022-08-19T06:05:28;68.33;;;34.83;;
62572;SDS011;48626;51.678;5.806;2022-08-19T06:07:57;75.43;;;36.88;;
62572;SDS011;48626;51.678;5.806;2022-08-19T06:10:23;71.60;;;36.60;;
62572;SDS011;48626;51.678;5.806;2022-08-19T06:12:49;82.72;;;37.75;;
62572;SDS011;48626;51.678;5.806;2022-08-19T06:15:15;84.60;;;38.28;;
62572;SDS011;48626;51.678;5.806;2022-08-19T06:17:41;89.10;;;40.35;;
62572;SDS011;48626;51.678;5.806;2022-08-19T06:20:10;96.22;;;41.15;;
62572;SDS011;48626;51.678;5.806;2022-08-19T06:22:41;95.05;;;44.08;;
62572;SDS011;48626;51.678;5.806;2022-08-19T06:25:09;96.15;;;44.25;;
62572;SDS011;48626;51.678;5.806;2022-08-19T06:27:36;89.95;;;44.22;;
62572;SDS011;48626;51.678;5.806;2022-08-19T06:30:03;91.60;;;44.53;;
62572;SDS011;48626;51.678;5.806;2022-08-19T06:32:30;94.78;;;42.88;;
62572;SDS011;48626;51.678;5.806;2022-08-19T06:34:55;87.28;;;41.58;;
62572;SDS011;48626;51.678;5.806;2022-08-19T06:37:21;83.90;;;41.90;;
62572;SDS011;48626;51.678;5.806;2022-08-19T06:39:47;85.47;;;41.35;;
62572;SDS011;48626;51.678;5.806;2022-08-19T06:42:15;85.53;;;41.35;;
62572;SDS011;48626;51.678;5.806;2022-08-19T06:44:44;76.82;;;40.75;;
62572;SDS011;48626;51.678;5.806;2022-08-19T06:47:14;78.78;;;41.30;;
62572;SDS011;48626;51.678;5.806;2022-08-19T06:49:42;83.40;;;41.35;;
62572;SDS011;48626;51.678;5.806;2022-08-19T06:52:08;80.15;;;39.17;;
62572;SDS011;48626;51.678;5.806;2022-08-19T06:54:37;76.53;;;39.47;;
62572;SDS011;48626;51.678;5.806;2022-08-19T06:57:04;85.07;;;39.80;;
62572;SDS011;48626;51.678;5.806;2022-08-19T06:59:31;79.45;;;41.03;;
62572;SDS011;48626;51.678;5.806;2022-08-19T07:02:01;75.85;;;39.22;;
62572;SDS011;48626;51.678;5.806;2022-08-19T07:04:30;70.05;;;39.90;;
62572;SDS011;48626;51.678;5.806;2022-08-19T07:07:07;76.22;;;39.25;;
62572;SDS011;48626;51.678;5.806;2022-08-19T07:09:38;74.50;;;39.72;;
62572;SDS011;48626;51.678;5.806;2022-08-19T07:12:07;73.35;;;39.53;;
62572;SDS011;48626;51.678;5.806;2022-08-19T07:14:35;72.53;;;38.08;;
62572;SDS011;48626;51.678;5.806;2022-08-19T07:17:03;73.07;;;38.55;;
62572;SDS011;48626;51.678;5.806;2022-08-19T07:19:31;71.13;;;38.05;;
62572;SDS011;48626;51.678;5.806;2022-08-19T07:21:57;68.22;;;37.60;;
62572;SDS011;48626;51.678;5.806;2022-08-19T07:24:26;70.55;;;36.30;;
62572;SDS011;48626;51.678;5.806;2022-08-19T07:26:53;62.28;;;36.13;;
62572;SDS011;48626;51.678;5.806;2022-08-19T07:29:22;62.00;;;35.20;;
62572;SDS011;48626;51.678;5.806;2022-08-19T07:31:51;67.25;;;35.25;;
62572;SDS011;48626;51.678;5.806;2022-08-19T07:34:20;61.92;;;36.28;;
62572;SDS011;48626;51.678;5.806;2022-08-19T07:36:48;63.38;;;32.83;;
62572;SDS011;48626;51.678;5.806;2022-08-19T07:39:16;63.15;;;34.55;;
62572;SDS011;48626;51.678;5.806;2022-08-19T07:41:45;67.82;;;34.42;;
62572;SDS011;48626;51.678;5.806;2022-08-19T07:44:11;63.13;;;34.50;;
62572;SDS011;48626;51.678;5.806;2022-08-19T07:46:39;61.47;;;33.47;;
62572;SDS011;48626;51.678;5.806;2022-08-19T07:49:10;59.08;;;33.17;;
62572;SDS011;48626;51.678;5.806;2022-08-19T07:54:39;54.63;;;31.63;;
62572;SDS011;48626;51.678;5.806;2022-08-19T07:57:06;55.42;;;32.47;;
62572;SDS011;48626;51.678;5.806;2022-08-19T07:59:32;63.63;;;31.60;;
62572;SDS011;48626;51.678;5.806;2022-08-19T08:01:58;59.50;;;32.63;;
62572;SDS011;48626;51.678;5.806;2022-08-19T08:04:27;57.47;;;32.90;;
62572;SDS011;48626;51.678;5.806;2022-08-19T08:07:13;58.05;;;32.03;;
62572;SDS011;48626;51.678;5.806;2022-08-19T08:09:58;55.92;;;30.35;;
62572;SDS011;48626;51.678;5.806;2022-08-19T08:12:29;51.70;;;29.55;;
62572;SDS011;48626;51.678;5.806;2022-08-19T08:14:59;56.65;;;32.38;;
62572;SDS011;48626;51.678;5.806;2022-08-19T08:17:29;51.17;;;30.38;;
62572;SDS011;48626;51.678;5.806;2022-08-19T08:19:57;52.92;;;29.70;;
62572;SDS011;48626;51.678;5.806;2022-08-19T08:22:23;51.80;;;31.13;;
62572;SDS011;48626;51.678;5.806;2022-08-19T08:25:09;44.63;;;28.40;;
62572;SDS011;48626;51.678;5.806;2022-08-19T08:27:41;43.92;;;26.88;;
62572;SDS011;48626;51.678;5.806;2022-08-19T08:30:12;45.17;;;25.77;;
62572;SDS011;48626;51.678;5.806;2022-08-19T08:32:40;36.08;;;23.95;;
62572;SDS011;48626;51.678;5.806;2022-08-19T08:35:08;44.15;;;25.27;;
62572;SDS011;48626;51.678;5.806;2022-08-19T08:37:36;47.45;;;25.77;;
62572;SDS011;48626;51.678;5.806;2022-08-19T08:40:06;40.35;;;23.23;;
62572;SDS011;48626;51.678;5.806;2022-08-19T08:42:50;37.72;;;23.45;;
62572;SDS011;48626;51.678;5.806;2022-08-19T08:45:25;38.53;;;21.75;;
62572;SDS011;48626;51.678;5.806;2022-08-19T08:47:52;39.83;;;24.13;;
62572;SDS011;48626;51.678;5.806;2022-08-19T08:52:50;40.72;;;26.05;;
62572;SDS011;48626;51.678;5.806;2022-08-19T08:55:21;41.75;;;23.75;;
62572;SDS011;48626;51.678;5.806;2022-08-19T08:57:59;45.97;;;25.25;;
62572;SDS011;48626;51.678;5.806;2022-08-19T09:00:44;42.55;;;23.50;;
62572;SDS011;48626;51.678;5.806;2022-08-19T09:03:21;42.75;;;23.35;;
62572;SDS011;48626;51.678;5.806;2022-08-19T09:11:25;33.20;;;20.25;;
62572;SDS011;48626;51.678;5.806;2022-08-19T09:16:52;37.83;;;22.80;;
62572;SDS011;48626;51.678;5.806;2022-08-19T09:19:18;36.38;;;22.83;;
62572;SDS011;48626;51.678;5.806;2022-08-19T09:21:43;34.80;;;22.33;;
62572;SDS011;48626;51.678;5.806;2022-08-19T09:24:10;32.95;;;22.40;;
62572;SDS011;48626;51.678;5.806;2022-08-19T09:26:36;37.83;;;24.25;;
62572;SDS011;48626;51.678;5.806;2022-08-19T09:29:02;36.58;;;24.00;;
62572;SDS011;48626;51.678;5.806;2022-08-19T09:31:30;38.65;;;23.90;;
62572;SDS011;48626;51.678;5.806;2022-08-19T09:33:57;38.50;;;24.10;;
62572;SDS011;48626;51.678;5.806;2022-08-19T09:36:25;45.72;;;25.10;;
62572;SDS011;48626;51.678;5.806;2022-08-19T09:38:54;39.25;;;23.48;;
62572;SDS011;48626;51.678;5.806;2022-08-19T09:41:21;39.28;;;23.70;;
62572;SDS011;48626;51.678;5.806;2022-08-19T09:43:49;31.00;;;22.70;;
62572;SDS011;48626;51.678;5.806;2022-08-19T09:46:17;42.97;;;23.95;;
62572;SDS011;48626;51.678;5.806;2022-08-19T09:48:46;35.83;;;23.63;;
62572;SDS011;48626;51.678;5.806;2022-08-19T09:51:14;41.83;;;25.17;;
62572;SDS011;48626;51.678;5.806;2022-08-19T09:53:49;35.30;;;23.58;;
62572;SDS011;48626;51.678;5.806;2022-08-19T09:56:16;41.42;;;25.30;;
62572;SDS011;48626;51.678;5.806;2022-08-19T09:58:43;34.80;;;24.83;;
62572;SDS011;48626;51.678;5.806;2022-08-19T10:01:09;40.08;;;23.77;;
62572;SDS011;48626;51.678;5.806;2022-08-19T10:03:46;32.15;;;22.00;;
62572;SDS011;48626;51.678;5.806;2022-08-19T10:06:13;30.98;;;20.70;;
62572;SDS011;48626;51.678;5.806;2022-08-19T10:08:39;32.90;;;22.45;;
62572;SDS011;48626;51.678;5.806;2022-08-19T10:11:05;27.52;;;19.90;;
62572;SDS011;48626;51.678;5.806;2022-08-19T10:13:31;31.60;;;21.17;;
62572;SDS011;48626;51.678;5.806;2022-08-19T10:16:07;30.58;;;20.98;;
62572;SDS011;48626;51.678;5.806;2022-08-19T10:18:35;33.30;;;21.45;;
62572;SDS011;48626;51.678;5.806;2022-08-19T10:21:13;28.75;;;19.25;;
62572;SDS011;48626;51.678;5.806;2022-08-19T10:23:41;31.45;;;21.48;;
62572;SDS011;48626;51.678;5.806;2022-08-19T10:26:10;31.33;;;22.40;;
62572;SDS011;48626;51.678;5.806;2022-08-19T10:28:38;30.45;;;21.52;;
62572;SDS011;48626;51.678;5.806;2022-08-19T10:31:11;36.53;;;22.67;;
62572;SDS011;48626;51.678;5.806;2022-08-19T10:33:39;38.15;;;24.33;;
62572;SDS011;48626;51.678;5.806;2022-08-19T10:36:07;35.30;;;23.98;;
62572;SDS011;48626;51.678;5.806;2022-08-19T10:38:35;35.80;;;22.50;;
62572;SDS011;48626;51.678;5.806;2022-08-19T10:41:11;31.92;;;21.85;;
62572;SDS011;48626;51.678;5.806;2022-08-19T10:43:40;35.72;;;22.58;;
62572;SDS011;48626;51.678;5.806;2022-08-19T10:46:07;32.95;;;22.13;;
62572;SDS011;48626;51.678;5.806;2022-08-19T10:48:35;36.27;;;23.10;;
62572;SDS011;48626;51.678;5.806;2022-08-19T10:51:01;32.83;;;21.35;;
62572;SDS011;48626;51.678;5.806;2022-08-19T10:53:46;27.98;;;19.70;;
62572;SDS011;48626;51.678;5.806;2022-08-19T10:56:12;27.05;;;18.50;;
62572;SDS011;48626;51.678;5.806;2022-08-19T10:58:56;27.95;;;19.00;;
62572;SDS011;48626;51.678;5.806;2022-08-19T11:01:23;23.55;;;17.20;;
62572;SDS011;48626;51.678;5.806;2022-08-19T11:03:49;24.35;;;16.08;;
62572;SDS011;48626;51.678;5.806;2022-08-19T11:06:15;26.95;;;18.33;;
62572;SDS011;48626;51.678;5.806;2022-08-19T11:08:41;28.80;;;18.73;;
62572;SDS011;48626;51.678;5.806;2022-08-19T11:11:10;30.02;;;19.27;;
62572;SDS011;48626;51.678;5.806;2022-08-19T11:13:37;29.27;;;18.17;;
62572;SDS011;48626;51.678;5.806;2022-08-19T11:16:08;28.23;;;18.33;;
62572;SDS011;48626;51.678;5.806;2022-08-19T11:18:38;32.50;;;18.17;;
62572;SDS011;48626;51.678;5.806;2022-08-19T11:23:39;36.65;;;19.02;;
62572;SDS011;48626;51.678;5.806;2022-08-19T11:26:05;29.52;;;19.15;;
62572;SDS011;48626;51.678;5.806;2022-08-19T11:28:31;32.30;;;19.52;;
62572;SDS011;48626;51.678;5.806;2022-08-19T11:30:57;30.98;;;20.70;;
62572;SDS011;48626;51.678;5.806;2022-08-19T11:33:23;28.58;;;19.55;;
62572;SDS011;48626;51.678;5.806;2022-08-19T11:35:51;32.35;;;21.80;;
62572;SDS011;48626;51.678;5.806;2022-08-19T11:38:17;31.08;;;20.98;;
62572;SDS011;48626;51.678;5.806;2022-08-19T11:40:43;31.10;;;20.50;;
62572;SDS011;48626;51.678;5.806;2022-08-19T11:43:09;30.08;;;20.58;;
62572;SDS011;48626;51.678;5.806;2022-08-19T11:45:34;30.27;;;20.35;;
62572;SDS011;48626;51.678;5.806;2022-08-19T11:48:00;27.48;;;20.35;;
62572;SDS011;48626;51.678;5.806;2022-08-19T11:50:27;29.73;;;19.25;;
62572;SDS011;48626;51.678;5.806;2022-08-19T11:52:53;26.23;;;17.80;;
62572;SDS011;48626;51.678;5.806;2022-08-19T11:55:21;35.28;;;19.70;;
62572;SDS011;48626;51.678;5.806;2022-08-19T11:57:46;24.92;;;15.10;;
62572;SDS011;48626;51.678;5.806;2022-08-19T12:00:13;24.65;;;17.50;;
62572;SDS011;48626;51.678;5.806;2022-08-19T12:02:39;25.27;;;16.92;;
62572;SDS011;48626;51.678;5.806;2022-08-19T12:05:05;30.52;;;18.70;;
62572;SDS011;48626;51.678;5.806;2022-08-19T12:07:32;25.23;;;16.10;;
62572;SDS011;48626;51.678;5.806;2022-08-19T12:09:59;25.75;;;16.45;;
62572;SDS011;48626;51.678;5.806;2022-08-19T12:12:25;30.85;;;18.08;;
62572;SDS011;48626;51.678;5.806;2022-08-19T12:14:52;28.13;;;19.15;;
62572;SDS011;48626;51.678;5.806;2022-08-19T12:17:23;27.38;;;19.05;;
62572;SDS011;48626;51.678;5.806;2022-08-19T12:19:50;27.67;;;19.88;;
62572;SDS011;48626;51.678;5.806;2022-08-19T12:22:16;27.38;;;18.15;;
62572;SDS011;48626;51.678;5.806;2022-08-19T12:24:42;26.10;;;16.58;;
62572;SDS011;48626;51.678;5.806;2022-08-19T12:27:08;23.80;;;17.98;;
62572;SDS011;48626;51.678;5.806;2022-08-19T12:29:34;26.25;;;17.73;;
62572;SDS011;48626;51.678;5.806;2022-08-19T12:31:59;24.15;;;19.05;;
62572;SDS011;48626;51.678;5.806;2022-08-19T12:34:28;30.98;;;18.27;;
62572;SDS011;48626;51.678;5.806;2022-08-19T12:36:55;23.77;;;16.63;;
62572;SDS011;48626;51.678;5.806;2022-08-19T12:39:22;27.70;;;18.40;;
62572;SDS011;48626;51.678;5.806;2022-08-19T12:41:48;25.42;;;17.05;;
62572;SDS011;48626;51.678;5.806;2022-08-19T12:44:14;24.13;;;16.25;;
62572;SDS011;48626;51.678;5.806;2022-08-19T12:46:40;21.92;;;16.65;;
62572;SDS011;48626;51.678;5.806;2022-08-19T12:49:05;19.15;;;15.93;;
62572;SDS011;48626;51.678;5.806;2022-08-19T12:51:31;24.85;;;15.52;;
62572;SDS011;48626;51.678;5.806;2022-08-19T12:53:57;23.30;;;16.80;;
62572;SDS011;48626;51.678;5.806;2022-08-19T12:56:22;27.25;;;17.77;;
62572;SDS011;48626;51.678;5.806;2022-08-19T12:58:48;22.05;;;16.33;;
62572;SDS011;48626;51.678;5.806;2022-08-19T13:01:15;30.45;;;16.60;;
62572;SDS011;48626;51.678;5.806;2022-08-19T13:03:42;20.00;;;15.98;;
62572;SDS011;48626;51.678;5.806;2022-08-19T13:06:10;30.10;;;16.97;;
62572;SDS011;48626;51.678;5.806;2022-08-19T13:08:35;22.23;;;16.52;;
62572;SDS011;48626;51.678;5.806;2022-08-19T13:11:08;24.08;;;16.20;;
62572;SDS011;48626;51.678;5.806;2022-08-19T13:13:36;21.05;;;16.10;;
62572;SDS011;48626;51.678;5.806;2022-08-19T13:16:06;22.45;;;14.00;;
62572;SDS011;48626;51.678;5.806;2022-08-19T13:18:32;23.15;;;14.05;;
62572;SDS011;48626;51.678;5.806;2022-08-19T13:21:01;18.23;;;13.35;;
62572;SDS011;48626;51.678;5.806;2022-08-19T13:23:29;20.25;;;15.20;;
62572;SDS011;48626;51.678;5.806;2022-08-19T13:25:58;25.20;;;16.20;;
62572;SDS011;48626;51.678;5.806;2022-08-19T13:28:25;22.52;;;14.60;;
62572;SDS011;48626;51.678;5.806;2022-08-19T13:30:51;23.75;;;16.92;;
62572;SDS011;48626;51.678;5.806;2022-08-19T13:33:46;23.25;;;16.23;;
62572;SDS011;48626;51.678;5.806;2022-08-19T13:36:11;26.73;;;18.92;;
62572;SDS011;48626;51.678;5.806;2022-08-19T13:38:37;24.55;;;16.52;;
62572;SDS011;48626;51.678;5.806;2022-08-19T13:41:04;19.40;;;14.13;;
62572;SDS011;48626;51.678;5.806;2022-08-19T13:43:30;20.05;;;14.13;;
62572;SDS011;48626;51.678;5.806;2022-08-19T13:45:56;26.45;;;15.38;;
62572;SDS011;48626;51.678;5.806;2022-08-19T13:48:22;22.15;;;15.90;;
62572;SDS011;48626;51.678;5.806;2022-08-19T13:50:48;27.35;;;18.20;;
62572;SDS011;48626;51.678;5.806;2022-08-19T13:53:14;27.02;;;18.25;;
62572;SDS011;48626;51.678;5.806;2022-08-19T13:55:41;23.90;;;16.63;;
62572;SDS011;48626;51.678;5.806;2022-08-19T13:58:08;23.52;;;15.73;;
62572;SDS011;48626;51.678;5.806;2022-08-19T14:00:37;30.10;;;15.02;;
62572;SDS011;48626;51.678;5.806;2022-08-19T14:03:05;24.17;;;17.13;;
62572;SDS011;48626;51.678;5.806;2022-08-19T14:05:31;25.13;;;15.98;;
62572;SDS011;48626;51.678;5.806;2022-08-19T14:07:57;24.20;;;16.40;;
62572;SDS011;48626;51.678;5.806;2022-08-19T14:10:24;26.23;;;17.88;;
62572;SDS011;48626;51.678;5.806;2022-08-19T14:12:54;31.20;;;17.63;;
62572;SDS011;48626;51.678;5.806;2022-08-19T14:15:23;27.67;;;17.30;;
62572;SDS011;48626;51.678;5.806;2022-08-19T14:17:49;25.92;;;16.48;;
62572;SDS011;48626;51.678;5.806;2022-08-19T14:20:16;25.13;;;18.15;;
62572;SDS011;48626;51.678;5.806;2022-08-19T14:22:42;29.77;;;18.33;;
62572;SDS011;48626;51.678;5.806;2022-08-19T14:25:10;28.55;;;19.98;;
62572;SDS011;48626;51.678;5.806;2022-08-19T14:27:39;32.58;;;19.95;;
62572;SDS011;48626;51.678;5.806;2022-08-19T14:30:07;32.67;;;20.80;;
62572;SDS011;48626;51.678;5.806;2022-08-19T14:32:34;27.10;;;21.20;;
62572;SDS011;48626;51.678;5.806;2022-08-19T14:35:04;31.02;;;21.23;;
62572;SDS011;48626;51.678;5.806;2022-08-19T14:37:33;28.13;;;20.35;;
62572;SDS011;48626;51.678;5.806;2022-08-19T14:39:59;29.15;;;20.73;;
62572;SDS011;48626;51.678;5.806;2022-08-19T14:42:25;30.35;;;21.27;;
62572;SDS011;48626;51.678;5.806;2022-08-19T14:44:50;31.20;;;21.17;;
62572;SDS011;48626;51.678;5.806;2022-08-19T14:47:16;23.98;;;17.92;;
62572;SDS011;48626;51.678;5.806;2022-08-19T14:49:42;24.02;;;15.65;;